sensor_id;sensor_type;location;lat;lon;timestamp;P1;durP1;ratioP1;P2;durP2;ratioP2
68192;SDS011;55012;47.562;18.414;2023-11-22T00:00:02;33.63;;;17.70;;
68192;SDS011;55012;47.562;18.414;2023-11-22T00:02:29;34.67;;;17.42;;
68192;SDS011;55012;47.562;18.414;2023-11-22T00:04:54;35.75;;;17.48;;
68192;SDS011;55012;47.562;18.414;2023-11-22T00:07:20;37.03;;;17.88;;
68192;SDS011;55012;47.562;18.414;2023-11-22T00:09:46;37.33;;;18.00;;
68192;SDS011;55012;47.562;18.414;2023-11-22T00:12:12;38.45;;;18.67;;
68192;SDS011;55012;47.562;18.414;2023-11-22T00:14:38;39.38;;;18.70;;
68192;SDS011;55012;47.562;18.414;2023-11-22T00:17:04;38.83;;;18.15;;
68192;SDS011;55012;47.562;18.414;2023-11-22T00:19:30;39.95;;;19.00;;
68192;SDS011;55012;47.562;18.414;2023-11-22T00:21:56;40.70;;;19.20;;
68192;SDS011;55012;47.562;18.414;2023-11-22T00:24:21;43.50;;;20.45;;
68192;SDS011;55012;47.562;18.414;2023-11-22T00:26:47;40.53;;;19.38;;
68192;SDS011;55012;47.562;18.414;2023-11-22T00:29:12;46.67;;;20.05;;
68192;SDS011;55012;47.562;18.414;2023-11-22T00:31:38;42.30;;;20.45;;
68192;SDS011;55012;47.562;18.414;2023-11-22T00:34:04;41.47;;;19.60;;
68192;SDS011;55012;47.562;18.414;2023-11-22T00:36:29;42.15;;;19.17;;
68192;SDS011;55012;47.562;18.414;2023-11-22T00:38:55;40.97;;;19.45;;
68192;SDS011;55012;47.562;18.414;2023-11-22T00:41:21;42.78;;;20.40;;
68192;SDS011;55012;47.562;18.414;2023-11-22T00:43:46;38.17;;;19.20;;
68192;SDS011;55012;47.562;18.414;2023-11-22T00:46:12;41.35;;;19.08;;
68192;SDS011;55012;47.562;18.414;2023-11-22T00:48:37;45.40;;;20.30;;
68192;SDS011;55012;47.562;18.414;2023-11-22T00:51:03;51.20;;;19.35;;
68192;SDS011;55012;47.562;18.414;2023-11-22T00:53:34;74.88;;;18.70;;
68192;SDS011;55012;47.562;18.414;2023-11-22T00:56:01;41.45;;;19.25;;
68192;SDS011;55012;47.562;18.414;2023-11-22T00:58:27;46.33;;;19.15;;
68192;SDS011;55012;47.562;18.414;2023-11-22T01:00:52;48.53;;;19.80;;
68192;SDS011;55012;47.562;18.414;2023-11-22T01:03:18;45.17;;;20.30;;
68192;SDS011;55012;47.562;18.414;2023-11-22T01:05:44;74.53;;;18.80;;
68192;SDS011;55012;47.562;18.414;2023-11-22T01:08:11;59.97;;;19.83;;
68192;SDS011;55012;47.562;18.414;2023-11-22T01:10:38;98.78;;;20.52;;
68192;SDS011;55012;47.562;18.414;2023-11-22T01:13:04;51.53;;;19.48;;
68192;SDS011;55012;47.562;18.414;2023-11-22T01:15:29;59.38;;;19.95;;
68192;SDS011;55012;47.562;18.414;2023-11-22T01:17:55;51.55;;;18.45;;
68192;SDS011;55012;47.562;18.414;2023-11-22T01:20:20;51.72;;;19.42;;
68192;SDS011;55012;47.562;18.414;2023-11-22T01:22:48;67.40;;;20.23;;
68192;SDS011;55012;47.562;18.414;2023-11-22T01:25:14;52.40;;;19.45;;
68192;SDS011;55012;47.562;18.414;2023-11-22T01:27:39;174.30;;;21.10;;
68192;SDS011;55012;47.562;18.414;2023-11-22T01:30:05;60.75;;;20.10;;
68192;SDS011;55012;47.562;18.414;2023-11-22T01:32:32;107.95;;;20.02;;
68192;SDS011;55012;47.562;18.414;2023-11-22T01:34:59;98.30;;;19.15;;
68192;SDS011;55012;47.562;18.414;2023-11-22T01:37:25;72.30;;;17.90;;
68192;SDS011;55012;47.562;18.414;2023-11-22T01:39:52;83.82;;;18.58;;
68192;SDS011;55012;47.562;18.414;2023-11-22T01:42:19;161.43;;;20.67;;
68192;SDS011;55012;47.562;18.414;2023-11-22T01:44:45;100.30;;;19.40;;
68192;SDS011;55012;47.562;18.414;2023-11-22T01:47:12;141.05;;;20.50;;
68192;SDS011;55012;47.562;18.414;2023-11-22T01:49:39;109.88;;;19.48;;
68192;SDS011;55012;47.562;18.414;2023-11-22T01:52:05;149.02;;;18.70;;
68192;SDS011;55012;47.562;18.414;2023-11-22T01:54:31;138.35;;;18.98;;
68192;SDS011;55012;47.562;18.414;2023-11-22T01:56:57;99.60;;;19.20;;
68192;SDS011;55012;47.562;18.414;2023-11-22T01:59:24;62.33;;;18.48;;
68192;SDS011;55012;47.562;18.414;2023-11-22T02:01:51;92.05;;;19.52;;
68192;SDS011;55012;47.562;18.414;2023-11-22T02:04:18;115.82;;;20.02;;
68192;SDS011;55012;47.562;18.414;2023-11-22T02:06:44;288.33;;;22.67;;
68192;SDS011;55012;47.562;18.414;2023-11-22T02:09:10;115.90;;;17.83;;
68192;SDS011;55012;47.562;18.414;2023-11-22T02:11:40;151.65;;;19.83;;
68192;SDS011;55012;47.562;18.414;2023-11-22T02:14:07;144.77;;;18.20;;
68192;SDS011;55012;47.562;18.414;2023-11-22T02:16:34;150.13;;;18.65;;
68192;SDS011;55012;47.562;18.414;2023-11-22T02:19:00;65.65;;;17.10;;
68192;SDS011;55012;47.562;18.414;2023-11-22T02:21:25;141.50;;;19.25;;
68192;SDS011;55012;47.562;18.414;2023-11-22T02:23:51;83.07;;;18.58;;
68192;SDS011;55012;47.562;18.414;2023-11-22T02:26:16;114.57;;;18.98;;
68192;SDS011;55012;47.562;18.414;2023-11-22T02:28:45;102.20;;;17.70;;
68192;SDS011;55012;47.562;18.414;2023-11-22T02:31:10;102.72;;;17.95;;
68192;SDS011;55012;47.562;18.414;2023-11-22T02:33:36;97.90;;;17.27;;
68192;SDS011;55012;47.562;18.414;2023-11-22T02:36:01;198.27;;;18.55;;
68192;SDS011;55012;47.562;18.414;2023-11-22T02:38:28;230.43;;;20.25;;
68192;SDS011;55012;47.562;18.414;2023-11-22T02:40:53;140.82;;;18.15;;
68192;SDS011;55012;47.562;18.414;2023-11-22T02:43:19;323.30;;;22.63;;
68192;SDS011;55012;47.562;18.414;2023-11-22T02:45:46;222.98;;;21.02;;
68192;SDS011;55012;47.562;18.414;2023-11-22T02:48:11;207.25;;;21.10;;
68192;SDS011;55012;47.562;18.414;2023-11-22T02:50:38;191.00;;;20.75;;
68192;SDS011;55012;47.562;18.414;2023-11-22T02:53:04;265.80;;;21.67;;
68192;SDS011;55012;47.562;18.414;2023-11-22T02:55:30;125.32;;;20.73;;
68192;SDS011;55012;47.562;18.414;2023-11-22T02:57:56;142.95;;;20.50;;
68192;SDS011;55012;47.562;18.414;2023-11-22T03:00:21;153.05;;;21.50;;
68192;SDS011;55012;47.562;18.414;2023-11-22T03:02:47;175.60;;;19.33;;
68192;SDS011;55012;47.562;18.414;2023-11-22T03:05:18;121.25;;;19.83;;
68192;SDS011;55012;47.562;18.414;2023-11-22T03:07:44;210.27;;;20.48;;
68192;SDS011;55012;47.562;18.414;2023-11-22T03:10:10;134.80;;;20.67;;
68192;SDS011;55012;47.562;18.414;2023-11-22T03:12:35;152.38;;;20.30;;
68192;SDS011;55012;47.562;18.414;2023-11-22T03:15:01;100.10;;;20.92;;
68192;SDS011;55012;47.562;18.414;2023-11-22T03:17:27;76.13;;;20.50;;
68192;SDS011;55012;47.562;18.414;2023-11-22T03:19:57;93.82;;;20.90;;
68192;SDS011;55012;47.562;18.414;2023-11-22T03:22:23;156.18;;;21.08;;
68192;SDS011;55012;47.562;18.414;2023-11-22T03:24:49;209.93;;;21.83;;
68192;SDS011;55012;47.562;18.414;2023-11-22T03:27:15;99.68;;;19.98;;
68192;SDS011;55012;47.562;18.414;2023-11-22T03:29:40;146.18;;;19.45;;
68192;SDS011;55012;47.562;18.414;2023-11-22T03:32:06;100.07;;;19.35;;
68192;SDS011;55012;47.562;18.414;2023-11-22T03:34:32;109.90;;;18.50;;
68192;SDS011;55012;47.562;18.414;2023-11-22T03:36:57;210.15;;;19.80;;
68192;SDS011;55012;47.562;18.414;2023-11-22T03:39:23;181.38;;;18.52;;
68192;SDS011;55012;47.562;18.414;2023-11-22T03:41:48;113.38;;;16.65;;
68192;SDS011;55012;47.562;18.414;2023-11-22T03:44:15;257.50;;;19.67;;
68192;SDS011;55012;47.562;18.414;2023-11-22T03:46:41;146.35;;;17.15;;
68192;SDS011;55012;47.562;18.414;2023-11-22T03:49:06;241.20;;;20.08;;
68192;SDS011;55012;47.562;18.414;2023-11-22T03:51:32;298.13;;;19.20;;
68192;SDS011;55012;47.562;18.414;2023-11-22T03:53:58;168.63;;;19.05;;
68192;SDS011;55012;47.562;18.414;2023-11-22T03:56:25;86.32;;;17.17;;
68192;SDS011;55012;47.562;18.414;2023-11-22T03:58:52;78.88;;;19.13;;
68192;SDS011;55012;47.562;18.414;2023-11-22T04:01:17;87.78;;;17.85;;
68192;SDS011;55012;47.562;18.414;2023-11-22T04:03:43;97.00;;;19.20;;
68192;SDS011;55012;47.562;18.414;2023-11-22T04:06:09;133.73;;;18.63;;
68192;SDS011;55012;47.562;18.414;2023-11-22T04:08:34;258.15;;;21.25;;
68192;SDS011;55012;47.562;18.414;2023-11-22T04:11:00;110.53;;;18.58;;
68192;SDS011;55012;47.562;18.414;2023-11-22T04:13:27;162.82;;;18.63;;
68192;SDS011;55012;47.562;18.414;2023-11-22T04:15:52;192.50;;;18.00;;
68192;SDS011;55012;47.562;18.414;2023-11-22T04:18:18;121.70;;;18.08;;
68192;SDS011;55012;47.562;18.414;2023-11-22T04:20:43;118.47;;;18.65;;
68192;SDS011;55012;47.562;18.414;2023-11-22T04:23:09;149.82;;;18.90;;
68192;SDS011;55012;47.562;18.414;2023-11-22T04:25:39;107.20;;;18.38;;
68192;SDS011;55012;47.562;18.414;2023-11-22T04:28:06;67.25;;;17.23;;
68192;SDS011;55012;47.562;18.414;2023-11-22T04:30:34;97.65;;;19.13;;
68192;SDS011;55012;47.562;18.414;2023-11-22T04:32:59;108.50;;;18.42;;
68192;SDS011;55012;47.562;18.414;2023-11-22T04:35:25;66.00;;;18.70;;
68192;SDS011;55012;47.562;18.414;2023-11-22T04:37:50;162.57;;;20.23;;
68192;SDS011;55012;47.562;18.414;2023-11-22T04:40:16;175.65;;;19.95;;
68192;SDS011;55012;47.562;18.414;2023-11-22T04:42:42;220.93;;;20.23;;
68192;SDS011;55012;47.562;18.414;2023-11-22T04:45:08;114.68;;;19.15;;
68192;SDS011;55012;47.562;18.414;2023-11-22T04:47:34;275.30;;;21.27;;
68192;SDS011;55012;47.562;18.414;2023-11-22T04:50:00;203.75;;;20.25;;
68192;SDS011;55012;47.562;18.414;2023-11-22T04:52:25;50.92;;;16.95;;
68192;SDS011;55012;47.562;18.414;2023-11-22T04:54:51;65.30;;;17.38;;
68192;SDS011;55012;47.562;18.414;2023-11-22T04:57:16;63.75;;;18.05;;
68192;SDS011;55012;47.562;18.414;2023-11-22T04:59:42;98.80;;;18.85;;
68192;SDS011;55012;47.562;18.414;2023-11-22T05:02:07;94.10;;;18.23;;
68192;SDS011;55012;47.562;18.414;2023-11-22T05:04:33;148.68;;;19.08;;
68192;SDS011;55012;47.562;18.414;2023-11-22T05:06:58;123.80;;;18.88;;
68192;SDS011;55012;47.562;18.414;2023-11-22T05:09:24;136.68;;;16.92;;
68192;SDS011;55012;47.562;18.414;2023-11-22T05:11:49;143.02;;;17.20;;
68192;SDS011;55012;47.562;18.414;2023-11-22T05:14:17;86.85;;;17.10;;
68192;SDS011;55012;47.562;18.414;2023-11-22T05:16:42;68.20;;;17.20;;
68192;SDS011;55012;47.562;18.414;2023-11-22T05:19:08;187.38;;;19.52;;
68192;SDS011;55012;47.562;18.414;2023-11-22T05:21:33;114.68;;;17.17;;
68192;SDS011;55012;47.562;18.414;2023-11-22T05:23:59;124.85;;;17.08;;
68192;SDS011;55012;47.562;18.414;2023-11-22T05:26:24;332.75;;;21.30;;
68192;SDS011;55012;47.562;18.414;2023-11-22T05:28:50;477.00;;;24.67;;
68192;SDS011;55012;47.562;18.414;2023-11-22T05:31:15;240.05;;;18.60;;
68192;SDS011;55012;47.562;18.414;2023-11-22T05:33:41;62.72;;;15.20;;
68192;SDS011;55012;47.562;18.414;2023-11-22T05:36:07;267.95;;;19.30;;
68192;SDS011;55012;47.562;18.414;2023-11-22T05:38:33;161.40;;;16.92;;
68192;SDS011;55012;47.562;18.414;2023-11-22T05:40:59;274.38;;;19.88;;
68192;SDS011;55012;47.562;18.414;2023-11-22T05:43:25;331.50;;;20.02;;
68192;SDS011;55012;47.562;18.414;2023-11-22T05:45:54;297.48;;;20.63;;
68192;SDS011;55012;47.562;18.414;2023-11-22T05:48:20;74.10;;;16.98;;
68192;SDS011;55012;47.562;18.414;2023-11-22T05:50:46;163.27;;;19.30;;
68192;SDS011;55012;47.562;18.414;2023-11-22T05:53:12;88.05;;;17.70;;
68192;SDS011;55012;47.562;18.414;2023-11-22T05:55:44;112.03;;;17.90;;
68192;SDS011;55012;47.562;18.414;2023-11-22T05:58:16;305.33;;;19.33;;
68192;SDS011;55012;47.562;18.414;2023-11-22T06:00:45;109.20;;;17.75;;
68192;SDS011;55012;47.562;18.414;2023-11-22T06:03:12;162.40;;;17.90;;
68192;SDS011;55012;47.562;18.414;2023-11-22T06:05:38;77.82;;;15.32;;
68192;SDS011;55012;47.562;18.414;2023-11-22T06:08:04;102.38;;;17.27;;
68192;SDS011;55012;47.562;18.414;2023-11-22T06:10:29;63.33;;;17.15;;
68192;SDS011;55012;47.562;18.414;2023-11-22T06:12:55;65.47;;;17.20;;
68192;SDS011;55012;47.562;18.414;2023-11-22T06:15:21;79.03;;;17.10;;
68192;SDS011;55012;47.562;18.414;2023-11-22T06:17:47;74.45;;;16.88;;
68192;SDS011;55012;47.562;18.414;2023-11-22T06:20:13;54.78;;;16.77;;
68192;SDS011;55012;47.562;18.414;2023-11-22T06:22:39;105.35;;;15.07;;
68192;SDS011;55012;47.562;18.414;2023-11-22T06:25:10;135.40;;;16.52;;
68192;SDS011;55012;47.562;18.414;2023-11-22T06:27:36;194.25;;;18.42;;
68192;SDS011;55012;47.562;18.414;2023-11-22T06:30:02;288.83;;;19.17;;
68192;SDS011;55012;47.562;18.414;2023-11-22T06:32:28;139.75;;;16.83;;
68192;SDS011;55012;47.562;18.414;2023-11-22T06:34:54;224.18;;;17.30;;
68192;SDS011;55012;47.562;18.414;2023-11-22T06:37:19;73.88;;;15.05;;
68192;SDS011;55012;47.562;18.414;2023-11-22T06:39:45;79.55;;;13.00;;
68192;SDS011;55012;47.562;18.414;2023-11-22T06:42:11;108.97;;;15.40;;
68192;SDS011;55012;47.562;18.414;2023-11-22T06:44:38;99.28;;;14.55;;
68192;SDS011;55012;47.562;18.414;2023-11-22T06:47:05;97.22;;;14.85;;
68192;SDS011;55012;47.562;18.414;2023-11-22T06:49:32;73.38;;;15.95;;
68192;SDS011;55012;47.562;18.414;2023-11-22T06:51:58;131.07;;;16.13;;
68192;SDS011;55012;47.562;18.414;2023-11-22T06:54:23;74.18;;;15.88;;
68192;SDS011;55012;47.562;18.414;2023-11-22T06:56:49;267.27;;;18.98;;
68192;SDS011;55012;47.562;18.414;2023-11-22T06:59:16;71.97;;;16.55;;
68192;SDS011;55012;47.562;18.414;2023-11-22T07:01:42;108.10;;;15.82;;
68192;SDS011;55012;47.562;18.414;2023-11-22T07:04:08;63.08;;;15.10;;
68192;SDS011;55012;47.562;18.414;2023-11-22T07:06:33;224.88;;;18.95;;
68192;SDS011;55012;47.562;18.414;2023-11-22T07:08:58;92.22;;;16.55;;
68192;SDS011;55012;47.562;18.414;2023-11-22T07:11:24;130.10;;;17.30;;
68192;SDS011;55012;47.562;18.414;2023-11-22T07:13:51;73.10;;;17.83;;
68192;SDS011;55012;47.562;18.414;2023-11-22T07:16:17;158.98;;;18.00;;
68192;SDS011;55012;47.562;18.414;2023-11-22T07:18:44;116.35;;;18.38;;
68192;SDS011;55012;47.562;18.414;2023-11-22T07:21:10;167.00;;;18.58;;
68192;SDS011;55012;47.562;18.414;2023-11-22T07:23:37;158.23;;;19.08;;
68192;SDS011;55012;47.562;18.414;2023-11-22T07:26:03;137.07;;;18.83;;
68192;SDS011;55012;47.562;18.414;2023-11-22T07:28:29;61.15;;;18.20;;
68192;SDS011;55012;47.562;18.414;2023-11-22T07:30:56;94.35;;;17.52;;
68192;SDS011;55012;47.562;18.414;2023-11-22T07:33:21;118.68;;;18.52;;
68192;SDS011;55012;47.562;18.414;2023-11-22T07:35:47;86.43;;;17.88;;
68192;SDS011;55012;47.562;18.414;2023-11-22T07:38:13;72.40;;;16.25;;
68192;SDS011;55012;47.562;18.414;2023-11-22T07:40:39;154.00;;;18.00;;
68192;SDS011;55012;47.562;18.414;2023-11-22T07:43:04;73.88;;;15.95;;
68192;SDS011;55012;47.562;18.414;2023-11-22T07:45:33;85.15;;;16.73;;
68192;SDS011;55012;47.562;18.414;2023-11-22T07:47:58;85.50;;;17.17;;
68192;SDS011;55012;47.562;18.414;2023-11-22T07:50:28;52.30;;;15.30;;
68192;SDS011;55012;47.562;18.414;2023-11-22T07:52:54;77.88;;;15.55;;
68192;SDS011;55012;47.562;18.414;2023-11-22T07:55:20;57.17;;;15.02;;
68192;SDS011;55012;47.562;18.414;2023-11-22T07:57:47;49.78;;;15.20;;
68192;SDS011;55012;47.562;18.414;2023-11-22T08:00:14;76.55;;;14.48;;
68192;SDS011;55012;47.562;18.414;2023-11-22T08:02:44;58.60;;;14.02;;
68192;SDS011;55012;47.562;18.414;2023-11-22T08:05:10;34.15;;;13.93;;
68192;SDS011;55012;47.562;18.414;2023-11-22T08:07:37;68.25;;;14.45;;
68192;SDS011;55012;47.562;18.414;2023-11-22T08:10:05;41.38;;;15.18;;
68192;SDS011;55012;47.562;18.414;2023-11-22T08:12:42;35.17;;;14.60;;
68192;SDS011;55012;47.562;18.414;2023-11-22T08:15:10;36.10;;;14.40;;
68192;SDS011;55012;47.562;18.414;2023-11-22T08:17:38;30.95;;;13.18;;
68192;SDS011;55012;47.562;18.414;2023-11-22T08:20:04;32.08;;;13.25;;
68192;SDS011;55012;47.562;18.414;2023-11-22T08:22:31;32.28;;;13.77;;
68192;SDS011;55012;47.562;18.414;2023-11-22T08:25:00;32.83;;;13.90;;
68192;SDS011;55012;47.562;18.414;2023-11-22T08:27:28;29.73;;;11.95;;
68192;SDS011;55012;47.562;18.414;2023-11-22T08:29:53;31.60;;;14.07;;
68192;SDS011;55012;47.562;18.414;2023-11-22T08:32:19;32.20;;;14.10;;
68192;SDS011;55012;47.562;18.414;2023-11-22T08:34:48;28.33;;;11.43;;
68192;SDS011;55012;47.562;18.414;2023-11-22T08:37:15;30.45;;;12.27;;
68192;SDS011;55012;47.562;18.414;2023-11-22T08:39:40;28.90;;;12.73;;
68192;SDS011;55012;47.562;18.414;2023-11-22T08:42:06;33.60;;;14.93;;
68192;SDS011;55012;47.562;18.414;2023-11-22T08:44:37;28.85;;;12.25;;
68192;SDS011;55012;47.562;18.414;2023-11-22T08:47:03;33.42;;;14.55;;
68192;SDS011;55012;47.562;18.414;2023-11-22T08:49:33;35.63;;;14.82;;
68192;SDS011;55012;47.562;18.414;2023-11-22T08:51:59;31.73;;;14.20;;
68192;SDS011;55012;47.562;18.414;2023-11-22T08:54:25;24.83;;;11.57;;
68192;SDS011;55012;47.562;18.414;2023-11-22T08:56:55;30.20;;;13.10;;
68192;SDS011;55012;47.562;18.414;2023-11-22T08:59:23;26.17;;;12.15;;
68192;SDS011;55012;47.562;18.414;2023-11-22T09:01:49;27.08;;;12.30;;
68192;SDS011;55012;47.562;18.414;2023-11-22T09:04:14;24.60;;;11.23;;
68192;SDS011;55012;47.562;18.414;2023-11-22T09:06:40;31.05;;;14.27;;
68192;SDS011;55012;47.562;18.414;2023-11-22T09:09:06;31.08;;;13.88;;
68192;SDS011;55012;47.562;18.414;2023-11-22T09:11:33;31.63;;;13.73;;
68192;SDS011;55012;47.562;18.414;2023-11-22T09:13:59;30.75;;;13.48;;
68192;SDS011;55012;47.562;18.414;2023-11-22T09:16:29;29.70;;;13.10;;
68192;SDS011;55012;47.562;18.414;2023-11-22T09:19:00;29.42;;;12.52;;
68192;SDS011;55012;47.562;18.414;2023-11-22T09:21:26;27.42;;;12.63;;
68192;SDS011;55012;47.562;18.414;2023-11-22T09:23:51;25.20;;;11.23;;
68192;SDS011;55012;47.562;18.414;2023-11-22T09:26:17;28.05;;;13.00;;
68192;SDS011;55012;47.562;18.414;2023-11-22T09:28:42;25.77;;;12.60;;
68192;SDS011;55012;47.562;18.414;2023-11-22T09:31:08;25.60;;;11.07;;
68192;SDS011;55012;47.562;18.414;2023-11-22T09:33:33;26.15;;;11.90;;
68192;SDS011;55012;47.562;18.414;2023-11-22T09:35:59;22.90;;;11.43;;
68192;SDS011;55012;47.562;18.414;2023-11-22T09:38:24;23.95;;;11.70;;
68192;SDS011;55012;47.562;18.414;2023-11-22T09:40:50;22.25;;;11.13;;
68192;SDS011;55012;47.562;18.414;2023-11-22T09:43:18;23.13;;;10.93;;
68192;SDS011;55012;47.562;18.414;2023-11-22T09:45:45;27.27;;;12.88;;
68192;SDS011;55012;47.562;18.414;2023-11-22T09:48:16;25.95;;;12.13;;
68192;SDS011;55012;47.562;18.414;2023-11-22T09:56:22;29.15;;;13.07;;
68192;SDS011;55012;47.562;18.414;2023-11-22T09:58:51;23.42;;;11.77;;
68192;SDS011;55012;47.562;18.414;2023-11-22T10:01:19;26.65;;;13.30;;
68192;SDS011;55012;47.562;18.414;2023-11-22T10:03:46;25.92;;;12.90;;
68192;SDS011;55012;47.562;18.414;2023-11-22T10:06:12;25.60;;;12.57;;
68192;SDS011;55012;47.562;18.414;2023-11-22T10:08:40;26.00;;;12.23;;
68192;SDS011;55012;47.562;18.414;2023-11-22T10:11:06;24.35;;;12.30;;
68192;SDS011;55012;47.562;18.414;2023-11-22T10:13:32;21.55;;;11.02;;
68192;SDS011;55012;47.562;18.414;2023-11-22T10:16:08;24.60;;;11.32;;
68192;SDS011;55012;47.562;18.414;2023-11-22T10:18:43;23.38;;;11.48;;
68192;SDS011;55012;47.562;18.414;2023-11-22T10:24:07;23.27;;;11.40;;
68192;SDS011;55012;47.562;18.414;2023-11-22T10:26:35;21.00;;;10.98;;
68192;SDS011;55012;47.562;18.414;2023-11-22T10:29:01;20.88;;;10.98;;
68192;SDS011;55012;47.562;18.414;2023-11-22T10:31:27;20.58;;;11.32;;
68192;SDS011;55012;47.562;18.414;2023-11-22T10:33:53;22.60;;;10.98;;
68192;SDS011;55012;47.562;18.414;2023-11-22T10:36:21;23.38;;;12.27;;
68192;SDS011;55012;47.562;18.414;2023-11-22T10:38:47;21.27;;;11.73;;
68192;SDS011;55012;47.562;18.414;2023-11-22T10:41:13;23.88;;;11.63;;
68192;SDS011;55012;47.562;18.414;2023-11-22T10:43:39;24.98;;;12.48;;
68192;SDS011;55012;47.562;18.414;2023-11-22T10:46:07;23.23;;;12.45;;
68192;SDS011;55012;47.562;18.414;2023-11-22T10:48:35;22.38;;;11.48;;
68192;SDS011;55012;47.562;18.414;2023-11-22T10:51:01;24.17;;;11.52;;
68192;SDS011;55012;47.562;18.414;2023-11-22T10:53:32;24.58;;;11.65;;
68192;SDS011;55012;47.562;18.414;2023-11-22T10:56:12;22.30;;;11.68;;
68192;SDS011;55012;47.562;18.414;2023-11-22T10:58:45;25.27;;;11.95;;
68192;SDS011;55012;47.562;18.414;2023-11-22T11:01:13;21.45;;;11.48;;
68192;SDS011;55012;47.562;18.414;2023-11-22T11:03:41;21.88;;;11.18;;
68192;SDS011;55012;47.562;18.414;2023-11-22T11:06:14;18.55;;;10.20;;
68192;SDS011;55012;47.562;18.414;2023-11-22T11:08:44;17.58;;;9.10;;
68192;SDS011;55012;47.562;18.414;2023-11-22T11:11:11;14.25;;;6.88;;
68192;SDS011;55012;47.562;18.414;2023-11-22T11:13:39;14.32;;;7.80;;
68192;SDS011;55012;47.562;18.414;2023-11-22T11:16:07;13.88;;;7.97;;
68192;SDS011;55012;47.562;18.414;2023-11-22T11:18:33;14.02;;;7.72;;
68192;SDS011;55012;47.562;18.414;2023-11-22T11:21:04;16.02;;;7.43;;
68192;SDS011;55012;47.562;18.414;2023-11-22T11:23:33;16.13;;;7.85;;
68192;SDS011;55012;47.562;18.414;2023-11-22T11:26:08;16.83;;;7.80;;
68192;SDS011;55012;47.562;18.414;2023-11-22T11:28:47;15.30;;;7.15;;
68192;SDS011;55012;47.562;18.414;2023-11-22T11:31:13;16.08;;;8.88;;
68192;SDS011;55012;47.562;18.414;2023-11-22T11:36:24;19.65;;;10.10;;
68192;SDS011;55012;47.562;18.414;2023-11-22T11:38:50;16.25;;;8.57;;
68192;SDS011;55012;47.562;18.414;2023-11-22T11:41:16;14.15;;;7.60;;
68192;SDS011;55012;47.562;18.414;2023-11-22T11:43:43;14.88;;;8.43;;
68192;SDS011;55012;47.562;18.414;2023-11-22T11:46:14;17.98;;;7.28;;
68192;SDS011;55012;47.562;18.414;2023-11-22T11:48:50;14.27;;;7.45;;
68192;SDS011;55012;47.562;18.414;2023-11-22T11:51:21;15.45;;;8.07;;
68192;SDS011;55012;47.562;18.414;2023-11-22T11:53:48;13.32;;;7.15;;
68192;SDS011;55012;47.562;18.414;2023-11-22T11:56:14;13.90;;;8.18;;
68192;SDS011;55012;47.562;18.414;2023-11-22T11:58:44;17.85;;;8.13;;
68192;SDS011;55012;47.562;18.414;2023-11-22T12:01:19;12.82;;;7.18;;
68192;SDS011;55012;47.562;18.414;2023-11-22T12:03:46;12.98;;;6.65;;
68192;SDS011;55012;47.562;18.414;2023-11-22T12:06:16;13.70;;;6.78;;
68192;SDS011;55012;47.562;18.414;2023-11-22T12:08:42;15.60;;;7.10;;
68192;SDS011;55012;47.562;18.414;2023-11-22T12:11:08;12.45;;;6.03;;
68192;SDS011;55012;47.562;18.414;2023-11-22T12:13:35;11.07;;;6.05;;
68192;SDS011;55012;47.562;18.414;2023-11-22T12:16:06;12.82;;;6.45;;
68192;SDS011;55012;47.562;18.414;2023-11-22T12:21:12;12.80;;;6.88;;
68192;SDS011;55012;47.562;18.414;2023-11-22T12:23:42;13.32;;;7.15;;
68192;SDS011;55012;47.562;18.414;2023-11-22T12:26:14;13.48;;;6.72;;
68192;SDS011;55012;47.562;18.414;2023-11-22T12:28:41;13.10;;;6.00;;
68192;SDS011;55012;47.562;18.414;2023-11-22T12:31:10;12.27;;;6.75;;
68192;SDS011;55012;47.562;18.414;2023-11-22T12:33:37;13.07;;;7.10;;
68192;SDS011;55012;47.562;18.414;2023-11-22T12:36:05;13.32;;;6.53;;
68192;SDS011;55012;47.562;18.414;2023-11-22T12:38:31;14.02;;;7.40;;
68192;SDS011;55012;47.562;18.414;2023-11-22T12:40:57;12.57;;;7.05;;
68192;SDS011;55012;47.562;18.414;2023-11-22T12:43:23;13.40;;;6.90;;
68192;SDS011;55012;47.562;18.414;2023-11-22T12:46:02;12.50;;;6.95;;
68192;SDS011;55012;47.562;18.414;2023-11-22T12:48:38;12.07;;;5.88;;
68192;SDS011;55012;47.562;18.414;2023-11-22T12:51:14;11.18;;;5.78;;
68192;SDS011;55012;47.562;18.414;2023-11-22T12:53:47;11.18;;;6.70;;
68192;SDS011;55012;47.562;18.414;2023-11-22T12:56:14;11.90;;;6.90;;
68192;SDS011;55012;47.562;18.414;2023-11-22T12:58:39;12.73;;;6.50;;
68192;SDS011;55012;47.562;18.414;2023-11-22T13:01:05;12.38;;;6.40;;
68192;SDS011;55012;47.562;18.414;2023-11-22T13:03:30;15.75;;;8.32;;
68192;SDS011;55012;47.562;18.414;2023-11-22T13:05:56;13.73;;;7.32;;
68192;SDS011;55012;47.562;18.414;2023-11-22T13:08:22;10.80;;;5.85;;
68192;SDS011;55012;47.562;18.414;2023-11-22T13:10:50;13.60;;;7.30;;
68192;SDS011;55012;47.562;18.414;2023-11-22T13:13:22;11.90;;;6.40;;
68192;SDS011;55012;47.562;18.414;2023-11-22T13:15:49;15.25;;;7.43;;
68192;SDS011;55012;47.562;18.414;2023-11-22T13:18:15;13.15;;;6.80;;
68192;SDS011;55012;47.562;18.414;2023-11-22T13:20:43;11.80;;;6.25;;
68192;SDS011;55012;47.562;18.414;2023-11-22T13:23:10;13.27;;;7.05;;
68192;SDS011;55012;47.562;18.414;2023-11-22T13:25:36;11.70;;;5.72;;
68192;SDS011;55012;47.562;18.414;2023-11-22T13:28:02;11.63;;;5.88;;
68192;SDS011;55012;47.562;18.414;2023-11-22T13:30:30;10.82;;;5.93;;
68192;SDS011;55012;47.562;18.414;2023-11-22T13:32:55;16.45;;;7.63;;
68192;SDS011;55012;47.562;18.414;2023-11-22T13:35:27;12.98;;;7.03;;
68192;SDS011;55012;47.562;18.414;2023-11-22T13:37:57;15.18;;;7.53;;
68192;SDS011;55012;47.562;18.414;2023-11-22T13:40:23;14.52;;;8.05;;
68192;SDS011;55012;47.562;18.414;2023-11-22T13:42:51;15.05;;;8.52;;
68192;SDS011;55012;47.562;18.414;2023-11-22T13:45:20;11.88;;;6.90;;
68192;SDS011;55012;47.562;18.414;2023-11-22T13:47:49;15.25;;;8.35;;
68192;SDS011;55012;47.562;18.414;2023-11-22T13:50:17;13.35;;;8.30;;
68192;SDS011;55012;47.562;18.414;2023-11-22T13:52:52;18.15;;;8.98;;
68192;SDS011;55012;47.562;18.414;2023-11-22T13:55:18;20.08;;;9.82;;
68192;SDS011;55012;47.562;18.414;2023-11-22T13:57:50;16.45;;;9.23;;
68192;SDS011;55012;47.562;18.414;2023-11-22T14:00:17;16.05;;;8.32;;
68192;SDS011;55012;47.562;18.414;2023-11-22T14:02:44;15.27;;;8.10;;
68192;SDS011;55012;47.562;18.414;2023-11-22T14:05:17;15.90;;;8.80;;
68192;SDS011;55012;47.562;18.414;2023-11-22T14:07:44;15.75;;;8.63;;
68192;SDS011;55012;47.562;18.414;2023-11-22T14:10:10;17.88;;;8.95;;
68192;SDS011;55012;47.562;18.414;2023-11-22T14:12:36;18.20;;;9.35;;
68192;SDS011;55012;47.562;18.414;2023-11-22T14:15:02;18.15;;;8.50;;
68192;SDS011;55012;47.562;18.414;2023-11-22T14:17:31;19.63;;;9.73;;
68192;SDS011;55012;47.562;18.414;2023-11-22T14:19:57;19.27;;;9.07;;